Charlotte, NC (28223)

6:59 AM EDT on July 28, 2016 (GMT -0400)
Mallard Glen | | Change Station

Elev 722 ft 35.33 °N, 80.74 °W | Updated 58 seconds ago

Clear
Clear
81.1 °F
Feels Like 85 °F
N
0.4
Wind Variable Wind from SW
Gusts 2.5 mph

Today
High -- | Low -- °F
--% Chance of Precip.
Yesterday
High -- | Low -- °F
Precip. -- in
Pressure 29.99 in
Visibility 10.0 miles
Clouds Clear
Heat Index 85 °F
Dew Point 71 °F
Humidity 72%
Rainfall 0.00 in
Snow Depth Not available.
6:29 AM 8:29 PM
Waning Crescent, 33% visible
METAR KJQF 281045Z AUTO 00000KT 10SM CLR 25/21 A2999 RMK AO2
Pressure 29.99 in
Visibility 10.0 miles
Clouds Clear
Heat Index 85 °F
Dew Point 71 °F
Humidity 72%
Rainfall 0.00 in
Snow Depth Not available.
6:29 AM 8:29 PM
Waning Crescent, 33% visible
METAR KJQF 281045Z AUTO 00000KT 10SM CLR 25/21 A2999 RMK AO2

10-Day Weather Forecast

Almanac

Astronomy

Jul. 28, 2016 Rise Set
Actual Time
Civil Twilight
Nautical Twilight
Astronomical Twilight
Moon
Length of Visible Light
Length of Day
Tomorrow will be .
, % of the Moon is Illuminated

Today's Extremes

State Highs State Lows

Community

WunderPhotos

Upload Photos

1,928,082 photos uploaded!

WunderBlog® & News

Nearby

Air Quality

  Air Quality AQ Index Pollutant
Not available.

Snow Depth

Station Depth Elevation

Earthquake Activity

City Distance Mag. Time & Date
Minimum magnitude displayed is 2.5.

Coastal Water Temperatures

Place Temperature

Stations

Nearby Weather Stations

Station Location Temp. Windchill Dew Point Humidity Wind Precip. Elev Updated Type
                   

Watches & Warnings

There are currently no watches in effect.